sensor_id;sensor_type;location;lat;lon;timestamp;pressure;altitude;pressure_sealevel;temperature;humidity
8366;BME280;4220;42.502;24.188;2024-02-15T00:02:04;95515.88;;;3.58;100.00
8366;BME280;4220;42.502;24.188;2024-02-15T00:04:30;95493.94;;;3.51;100.00
8366;BME280;4220;42.502;24.188;2024-02-15T00:06:58;95500.34;;;3.48;100.00
8366;BME280;4220;42.502;24.188;2024-02-15T00:09:27;95487.94;;;3.26;100.00
8366;BME280;4220;42.502;24.188;2024-02-15T00:11:56;95544.09;;;3.48;100.00
8366;BME280;4220;42.502;24.188;2024-02-15T00:14:22;95524.44;;;3.44;100.00
8366;BME280;4220;42.502;24.188;2024-02-15T00:16:49;95515.91;;;3.42;100.00
8366;BME280;4220;42.502;24.188;2024-02-15T00:19:16;95514.78;;;3.36;100.00
8366;BME280;4220;42.502;24.188;2024-02-15T00:21:43;95521.50;;;3.39;100.00
8366;BME280;4220;42.502;24.188;2024-02-15T00:24:10;95506.56;;;3.39;100.00
8366;BME280;4220;42.502;24.188;2024-02-15T00:26:37;95521.84;;;3.36;100.00
8366;BME280;4220;42.502;24.188;2024-02-15T00:29:05;95536.41;;;3.38;100.00
8366;BME280;4220;42.502;24.188;2024-02-15T00:31:32;95512.66;;;3.32;100.00
8366;BME280;4220;42.502;24.188;2024-02-15T00:33:58;95506.75;;;3.29;100.00
8366;BME280;4220;42.502;24.188;2024-02-15T00:36:27;95528.09;;;3.26;100.00
8366;BME280;4220;42.502;24.188;2024-02-15T00:38:55;95486.66;;;3.06;100.00
8366;BME280;4220;42.502;24.188;2024-02-15T00:41:22;95519.22;;;3.27;100.00
8366;BME280;4220;42.502;24.188;2024-02-15T00:43:48;95512.19;;;3.20;100.00
8366;BME280;4220;42.502;24.188;2024-02-15T00:46:16;95511.69;;;3.24;100.00
8366;BME280;4220;42.502;24.188;2024-02-15T00:48:43;95501.56;;;3.21;100.00
8366;BME280;4220;42.502;24.188;2024-02-15T00:51:10;95521.00;;;3.27;100.00
8366;BME280;4220;42.502;24.188;2024-02-15T00:53:37;95499.56;;;3.23;100.00
8366;BME280;4220;42.502;24.188;2024-02-15T00:56:04;95514.28;;;3.33;100.00
8366;BME280;4220;42.502;24.188;2024-02-15T00:58:32;95519.41;;;3.26;100.00
8366;BME280;4220;42.502;24.188;2024-02-15T01:00:59;95518.72;;;3.32;100.00
8366;BME280;4220;42.502;24.188;2024-02-15T01:03:27;95518.88;;;3.30;100.00
8366;BME280;4220;42.502;24.188;2024-02-15T01:05:54;95520.19;;;3.35;100.00
8366;BME280;4220;42.502;24.188;2024-02-15T01:08:21;95524.13;;;3.30;100.00
8366;BME280;4220;42.502;24.188;2024-02-15T01:10:47;95503.16;;;3.30;100.00
8366;BME280;4220;42.502;24.188;2024-02-15T01:13:14;95506.28;;;3.26;100.00
8366;BME280;4220;42.502;24.188;2024-02-15T01:15:41;95507.94;;;3.19;100.00
8366;BME280;4220;42.502;24.188;2024-02-15T01:18:08;95499.56;;;3.15;100.00
8366;BME280;4220;42.502;24.188;2024-02-15T01:20:36;95499.75;;;3.14;100.00
8366;BME280;4220;42.502;24.188;2024-02-15T01:23:03;95503.03;;;3.16;100.00
8366;BME280;4220;42.502;24.188;2024-02-15T01:25:30;95508.91;;;3.10;100.00
8366;BME280;4220;42.502;24.188;2024-02-15T01:27:57;95506.16;;;3.11;100.00
8366;BME280;4220;42.502;24.188;2024-02-15T01:30:23;95512.53;;;3.09;100.00
8366;BME280;4220;42.502;24.188;2024-02-15T01:32:50;95505.81;;;3.06;100.00
8366;BME280;4220;42.502;24.188;2024-02-15T01:35:17;95496.63;;;3.02;100.00
8366;BME280;4220;42.502;24.188;2024-02-15T01:37:45;95506.66;;;3.07;100.00
8366;BME280;4220;42.502;24.188;2024-02-15T01:40:12;95512.22;;;3.04;100.00
8366;BME280;4220;42.502;24.188;2024-02-15T01:42:39;95509.59;;;2.96;100.00
8366;BME280;4220;42.502;24.188;2024-02-15T01:45:06;95513.34;;;2.93;100.00
8366;BME280;4220;42.502;24.188;2024-02-15T01:47:35;95514.50;;;2.91;100.00
8366;BME280;4220;42.502;24.188;2024-02-15T01:50:02;95515.50;;;2.90;100.00
8366;BME280;4220;42.502;24.188;2024-02-15T01:52:30;95520.72;;;2.90;100.00
8366;BME280;4220;42.502;24.188;2024-02-15T01:54:59;95515.16;;;2.93;100.00
8366;BME280;4220;42.502;24.188;2024-02-15T01:57:34;95525.81;;;2.99;100.00
8366;BME280;4220;42.502;24.188;2024-02-15T02:00:01;95512.72;;;2.99;100.00
8366;BME280;4220;42.502;24.188;2024-02-15T02:02:31;95516.31;;;3.06;100.00
8366;BME280;4220;42.502;24.188;2024-02-15T02:04:59;95478.97;;;2.80;100.00
8366;BME280;4220;42.502;24.188;2024-02-15T02:07:26;95525.44;;;3.02;100.00
8366;BME280;4220;42.502;24.188;2024-02-15T02:09:53;95522.34;;;2.99;100.00
8366;BME280;4220;42.502;24.188;2024-02-15T02:12:21;95530.72;;;2.94;100.00
8366;BME280;4220;42.502;24.188;2024-02-15T02:14:50;95528.09;;;2.86;100.00
8366;BME280;4220;42.502;24.188;2024-02-15T02:17:17;95529.06;;;2.85;100.00
8366;BME280;4220;42.502;24.188;2024-02-15T02:19:45;95526.09;;;2.80;100.00
8366;BME280;4220;42.502;24.188;2024-02-15T02:22:12;95496.81;;;2.60;100.00
8366;BME280;4220;42.502;24.188;2024-02-15T02:24:53;95486.81;;;2.56;100.00
8366;BME280;4220;42.502;24.188;2024-02-15T02:27:21;95528.41;;;2.83;100.00
8366;BME280;4220;42.502;24.188;2024-02-15T02:29:48;95533.00;;;2.97;100.00
8366;BME280;4220;42.502;24.188;2024-02-15T02:32:15;95558.38;;;2.97;100.00
8366;BME280;4220;42.502;24.188;2024-02-15T02:34:42;95549.72;;;2.96;100.00
8366;BME280;4220;42.502;24.188;2024-02-15T02:37:09;95551.03;;;2.92;100.00
8366;BME280;4220;42.502;24.188;2024-02-15T02:39:39;95536.09;;;2.93;100.00
8366;BME280;4220;42.502;24.188;2024-02-15T02:42:07;95543.16;;;2.92;100.00
8366;BME280;4220;42.502;24.188;2024-02-15T02:44:33;95496.66;;;2.62;100.00
8366;BME280;4220;42.502;24.188;2024-02-15T02:47:00;95524.31;;;2.89;100.00
8366;BME280;4220;42.502;24.188;2024-02-15T02:49:27;95552.81;;;2.92;100.00
8366;BME280;4220;42.502;24.188;2024-02-15T02:51:54;95557.56;;;2.88;100.00
8366;BME280;4220;42.502;24.188;2024-02-15T02:54:21;95560.81;;;2.90;100.00
8366;BME280;4220;42.502;24.188;2024-02-15T02:56:47;95557.41;;;2.90;100.00
8366;BME280;4220;42.502;24.188;2024-02-15T02:59:16;95546.09;;;2.89;100.00
8366;BME280;4220;42.502;24.188;2024-02-15T03:01:43;95547.25;;;2.87;100.00
8366;BME280;4220;42.502;24.188;2024-02-15T03:04:09;95563.13;;;2.93;100.00
8366;BME280;4220;42.502;24.188;2024-02-15T03:06:37;95564.28;;;2.99;100.00
8366;BME280;4220;42.502;24.188;2024-02-15T03:09:07;95554.97;;;3.04;100.00
8366;BME280;4220;42.502;24.188;2024-02-15T03:11:35;95563.97;;;3.02;100.00
8366;BME280;4220;42.502;24.188;2024-02-15T03:14:02;95565.25;;;2.98;100.00
8366;BME280;4220;42.502;24.188;2024-02-15T03:16:31;95553.97;;;2.97;100.00
8366;BME280;4220;42.502;24.188;2024-02-15T03:18:58;95556.09;;;2.94;100.00
8366;BME280;4220;42.502;24.188;2024-02-15T03:21:26;95562.13;;;3.02;100.00
8366;BME280;4220;42.502;24.188;2024-02-15T03:23:53;95564.63;;;3.04;100.00
8366;BME280;4220;42.502;24.188;2024-02-15T03:26:29;95551.34;;;3.05;100.00
8366;BME280;4220;42.502;24.188;2024-02-15T03:28:56;95544.13;;;3.07;100.00
8366;BME280;4220;42.502;24.188;2024-02-15T03:31:23;95547.09;;;3.04;100.00
8366;BME280;4220;42.502;24.188;2024-02-15T03:33:51;95546.09;;;3.05;100.00
8366;BME280;4220;42.502;24.188;2024-02-15T03:36:19;95558.53;;;3.03;100.00
8366;BME280;4220;42.502;24.188;2024-02-15T03:38:47;95553.63;;;3.00;100.00
8366;BME280;4220;42.502;24.188;2024-02-15T03:41:13;95563.44;;;2.98;100.00
8366;BME280;4220;42.502;24.188;2024-02-15T03:43:41;95544.31;;;2.90;100.00
8366;BME280;4220;42.502;24.188;2024-02-15T03:46:08;95561.97;;;2.96;100.00
8366;BME280;4220;42.502;24.188;2024-02-15T03:48:37;95562.81;;;2.96;100.00
8366;BME280;4220;42.502;24.188;2024-02-15T03:51:05;95555.91;;;2.95;100.00
8366;BME280;4220;42.502;24.188;2024-02-15T03:53:33;95539.06;;;2.98;100.00
8366;BME280;4220;42.502;24.188;2024-02-15T03:56:03;95557.09;;;3.17;100.00
8366;BME280;4220;42.502;24.188;2024-02-15T03:58:30;95557.22;;;3.15;100.00
8366;BME280;4220;42.502;24.188;2024-02-15T04:00:58;95544.81;;;3.09;100.00
8366;BME280;4220;42.502;24.188;2024-02-15T04:03:25;95558.53;;;3.03;100.00
8366;BME280;4220;42.502;24.188;2024-02-15T04:05:52;95541.66;;;2.98;100.00
8366;BME280;4220;42.502;24.188;2024-02-15T04:08:21;95555.59;;;2.98;100.00
8366;BME280;4220;42.502;24.188;2024-02-15T04:10:48;95571.63;;;2.95;100.00
8366;BME280;4220;42.502;24.188;2024-02-15T04:13:16;95554.28;;;2.94;100.00
8366;BME280;4220;42.502;24.188;2024-02-15T04:15:43;95561.66;;;2.99;100.00
8366;BME280;4220;42.502;24.188;2024-02-15T04:18:12;95553.13;;;3.05;100.00
8366;BME280;4220;42.502;24.188;2024-02-15T04:20:39;95553.63;;;3.08;100.00
8366;BME280;4220;42.502;24.188;2024-02-15T04:23:10;95551.19;;;3.07;100.00
8366;BME280;4220;42.502;24.188;2024-02-15T04:25:38;95552.16;;;3.06;100.00
8366;BME280;4220;42.502;24.188;2024-02-15T04:28:09;95563.63;;;3.13;100.00
8366;BME280;4220;42.502;24.188;2024-02-15T04:30:36;95550.19;;;3.08;100.00
8366;BME280;4220;42.502;24.188;2024-02-15T04:33:05;95525.97;;;2.90;100.00
8366;BME280;4220;42.502;24.188;2024-02-15T04:35:33;95552.97;;;3.06;100.00
8366;BME280;4220;42.502;24.188;2024-02-15T04:38:00;95558.69;;;3.18;100.00
8366;BME280;4220;42.502;24.188;2024-02-15T04:40:29;95551.00;;;3.16;100.00
8366;BME280;4220;42.502;24.188;2024-02-15T04:42:57;95547.06;;;3.12;100.00
8366;BME280;4220;42.502;24.188;2024-02-15T04:45:24;95557.06;;;3.09;100.00
8366;BME280;4220;42.502;24.188;2024-02-15T04:47:51;95555.44;;;3.08;100.00
8366;BME280;4220;42.502;24.188;2024-02-15T04:50:19;95567.69;;;3.07;100.00
8366;BME280;4220;42.502;24.188;2024-02-15T04:52:46;95573.78;;;3.08;100.00
8366;BME280;4220;42.502;24.188;2024-02-15T04:55:15;95566.56;;;3.02;100.00
8366;BME280;4220;42.502;24.188;2024-02-15T04:57:43;95573.75;;;3.00;100.00
8366;BME280;4220;42.502;24.188;2024-02-15T05:00:13;95578.84;;;2.93;100.00
8366;BME280;4220;42.502;24.188;2024-02-15T05:02:40;95572.47;;;2.96;100.00
8366;BME280;4220;42.502;24.188;2024-02-15T05:05:09;95577.88;;;2.94;100.00
8366;BME280;4220;42.502;24.188;2024-02-15T05:07:35;95579.66;;;2.94;100.00
8366;BME280;4220;42.502;24.188;2024-02-15T05:10:06;95580.81;;;2.99;100.00
8366;BME280;4220;42.502;24.188;2024-02-15T05:12:34;95548.38;;;2.76;100.00
8366;BME280;4220;42.502;24.188;2024-02-15T05:15:01;95541.19;;;2.86;100.00
8366;BME280;4220;42.502;24.188;2024-02-15T05:17:37;95594.91;;;3.14;100.00
8366;BME280;4220;42.502;24.188;2024-02-15T05:20:07;95592.94;;;3.24;100.00
8366;BME280;4220;42.502;24.188;2024-02-15T05:22:36;95588.84;;;3.14;100.00
8366;BME280;4220;42.502;24.188;2024-02-15T05:25:05;95588.03;;;3.21;100.00
8366;BME280;4220;42.502;24.188;2024-02-15T05:27:34;95589.34;;;3.25;100.00
8366;BME280;4220;42.502;24.188;2024-02-15T05:30:02;95589.34;;;3.34;100.00
8366;BME280;4220;42.502;24.188;2024-02-15T05:32:32;95605.69;;;3.19;100.00
8366;BME280;4220;42.502;24.188;2024-02-15T05:35:01;95603.59;;;3.23;100.00
8366;BME280;4220;42.502;24.188;2024-02-15T05:37:28;95600.13;;;3.22;100.00
8366;BME280;4220;42.502;24.188;2024-02-15T05:39:55;95613.91;;;3.24;100.00
8366;BME280;4220;42.502;24.188;2024-02-15T05:42:22;95626.84;;;3.18;100.00
8366;BME280;4220;42.502;24.188;2024-02-15T05:44:49;95616.53;;;3.16;100.00
8366;BME280;4220;42.502;24.188;2024-02-15T05:47:16;95625.19;;;3.25;100.00
8366;BME280;4220;42.502;24.188;2024-02-15T05:49:43;95630.44;;;3.25;100.00
8366;BME280;4220;42.502;24.188;2024-02-15T05:52:11;95624.41;;;3.16;100.00
8366;BME280;4220;42.502;24.188;2024-02-15T05:54:38;95622.59;;;3.09;100.00
8366;BME280;4220;42.502;24.188;2024-02-15T05:57:07;95624.06;;;3.11;100.00
8366;BME280;4220;42.502;24.188;2024-02-15T05:59:34;95625.22;;;3.09;100.00
8366;BME280;4220;42.502;24.188;2024-02-15T06:02:01;95630.94;;;3.12;100.00
8366;BME280;4220;42.502;24.188;2024-02-15T06:04:28;95627.16;;;3.15;100.00
8366;BME280;4220;42.502;24.188;2024-02-15T06:06:55;95630.59;;;3.15;100.00
8366;BME280;4220;42.502;24.188;2024-02-15T06:09:27;95625.03;;;3.18;100.00
8366;BME280;4220;42.502;24.188;2024-02-15T06:11:55;95626.84;;;3.26;100.00
8366;BME280;4220;42.502;24.188;2024-02-15T06:14:23;95637.50;;;3.33;100.00
8366;BME280;4220;42.502;24.188;2024-02-15T06:16:50;95632.09;;;3.34;100.00
8366;BME280;4220;42.502;24.188;2024-02-15T06:19:17;95640.63;;;3.36;100.00
8366;BME280;4220;42.502;24.188;2024-02-15T06:21:44;95644.22;;;3.43;100.00
8366;BME280;4220;42.502;24.188;2024-02-15T06:24:12;95633.06;;;3.49;100.00
8366;BME280;4220;42.502;24.188;2024-02-15T06:26:41;95609.63;;;3.40;100.00
8366;BME280;4220;42.502;24.188;2024-02-15T06:29:07;95628.31;;;3.53;100.00
8366;BME280;4220;42.502;24.188;2024-02-15T06:31:52;95641.75;;;3.58;100.00
8366;BME280;4220;42.502;24.188;2024-02-15T06:34:35;95638.81;;;3.53;100.00
8366;BME280;4220;42.502;24.188;2024-02-15T06:37:35;95637.34;;;3.58;100.00
8366;BME280;4220;42.502;24.188;2024-02-15T06:40:19;95638.63;;;3.62;100.00
8366;BME280;4220;42.502;24.188;2024-02-15T06:42:48;95639.09;;;3.74;100.00
8366;BME280;4220;42.502;24.188;2024-02-15T06:45:15;95646.66;;;3.85;100.00
8366;BME280;4220;42.502;24.188;2024-02-15T06:47:43;95654.97;;;4.05;100.00
8366;BME280;4220;42.502;24.188;2024-02-15T06:50:10;95643.31;;;4.07;100.00
8366;BME280;4220;42.502;24.188;2024-02-15T06:52:37;95639.34;;;4.27;100.00
8366;BME280;4220;42.502;24.188;2024-02-15T06:55:06;95617.84;;;4.16;100.00
8366;BME280;4220;42.502;24.188;2024-02-15T06:57:33;95647.84;;;4.29;100.00
8366;BME280;4220;42.502;24.188;2024-02-15T07:00:02;95640.28;;;4.34;100.00
8366;BME280;4220;42.502;24.188;2024-02-15T07:02:29;95663.28;;;4.32;100.00
8366;BME280;4220;42.502;24.188;2024-02-15T07:04:58;95570.72;;;3.83;100.00
8366;BME280;4220;42.502;24.188;2024-02-15T07:07:25;95638.66;;;4.25;100.00
8366;BME280;4220;42.502;24.188;2024-02-15T07:09:51;95652.06;;;4.38;100.00
8366;BME280;4220;42.502;24.188;2024-02-15T07:12:19;95648.72;;;4.52;100.00
8366;BME280;4220;42.502;24.188;2024-02-15T07:14:46;95647.06;;;4.59;100.00
8366;BME280;4220;42.502;24.188;2024-02-15T07:17:15;95659.19;;;4.69;100.00
8366;BME280;4220;42.502;24.188;2024-02-15T07:19:43;95646.19;;;4.67;100.00
8366;BME280;4220;42.502;24.188;2024-02-15T07:22:09;95646.06;;;4.69;100.00
8366;BME280;4220;42.502;24.188;2024-02-15T07:24:36;95635.53;;;4.69;100.00
8366;BME280;4220;42.502;24.188;2024-02-15T07:27:04;95648.78;;;4.83;100.00
8366;BME280;4220;42.502;24.188;2024-02-15T07:29:31;95651.69;;;4.88;100.00
8366;BME280;4220;42.502;24.188;2024-02-15T07:31:57;95653.69;;;5.09;100.00
8366;BME280;4220;42.502;24.188;2024-02-15T07:34:26;95648.97;;;5.27;100.00
8366;BME280;4220;42.502;24.188;2024-02-15T07:36:52;95635.53;;;5.22;100.00
8366;BME280;4220;42.502;24.188;2024-02-15T07:39:19;95648.56;;;5.38;100.00
8366;BME280;4220;42.502;24.188;2024-02-15T07:41:50;95657.16;;;5.32;100.00
8366;BME280;4220;42.502;24.188;2024-02-15T07:44:17;95652.72;;;5.33;100.00
8366;BME280;4220;42.502;24.188;2024-02-15T07:46:45;95658.94;;;5.40;100.00
8366;BME280;4220;42.502;24.188;2024-02-15T07:49:12;95651.44;;;5.51;100.00
8366;BME280;4220;42.502;24.188;2024-02-15T07:51:40;95662.97;;;5.50;100.00
8366;BME280;4220;42.502;24.188;2024-02-15T07:54:07;95660.34;;;5.50;100.00
8366;BME280;4220;42.502;24.188;2024-02-15T07:56:33;95655.75;;;5.44;100.00
8366;BME280;4220;42.502;24.188;2024-02-15T07:59:01;95650.59;;;5.51;100.00
8366;BME280;4220;42.502;24.188;2024-02-15T08:01:28;95615.81;;;5.41;100.00
8366;BME280;4220;42.502;24.188;2024-02-15T08:03:56;95613.91;;;5.35;100.00
8366;BME280;4220;42.502;24.188;2024-02-15T08:06:23;95645.66;;;5.70;100.00
8366;BME280;4220;42.502;24.188;2024-02-15T08:08:54;95660.19;;;5.66;100.00
8366;BME280;4220;42.502;24.188;2024-02-15T08:11:21;95615.66;;;5.42;100.00
8366;BME280;4220;42.502;24.188;2024-02-15T08:13:50;95654.03;;;5.74;100.00
8366;BME280;4220;42.502;24.188;2024-02-15T08:16:20;95670.38;;;5.92;100.00
8366;BME280;4220;42.502;24.188;2024-02-15T08:18:48;95665.50;;;6.04;100.00
8366;BME280;4220;42.502;24.188;2024-02-15T08:21:18;95649.63;;;6.12;100.00
8366;BME280;4220;42.502;24.188;2024-02-15T08:23:46;95645.44;;;6.32;100.00
8366;BME280;4220;42.502;24.188;2024-02-15T08:26:14;95660.31;;;6.39;100.00
8366;BME280;4220;42.502;24.188;2024-02-15T08:28:42;95660.06;;;6.49;100.00
8366;BME280;4220;42.502;24.188;2024-02-15T08:31:09;95655.88;;;6.54;100.00
8366;BME280;4220;42.502;24.188;2024-02-15T08:33:36;95664.59;;;6.70;100.00
8366;BME280;4220;42.502;24.188;2024-02-15T08:36:04;95650.66;;;6.76;100.00
8366;BME280;4220;42.502;24.188;2024-02-15T08:38:32;95655.28;;;6.88;100.00
8366;BME280;4220;42.502;24.188;2024-02-15T08:40:59;95642.25;;;7.01;100.00
8366;BME280;4220;42.502;24.188;2024-02-15T08:43:27;95650.69;;;7.11;99.20
8366;BME280;4220;42.502;24.188;2024-02-15T08:45:54;95645.22;;;7.13;99.98
8366;BME280;4220;42.502;24.188;2024-02-15T08:48:21;95642.94;;;7.24;99.91
8366;BME280;4220;42.502;24.188;2024-02-15T08:50:48;95652.59;;;7.39;99.55
8366;BME280;4220;42.502;24.188;2024-02-15T08:53:15;95638.09;;;7.49;99.32
8366;BME280;4220;42.502;24.188;2024-02-15T08:55:44;95657.19;;;7.72;97.92
8366;BME280;4220;42.502;24.188;2024-02-15T08:58:11;95654.41;;;7.80;96.74
8366;BME280;4220;42.502;24.188;2024-02-15T09:00:39;95642.66;;;7.83;98.21
8366;BME280;4220;42.502;24.188;2024-02-15T09:03:10;95646.81;;;7.99;97.99
8366;BME280;4220;42.502;24.188;2024-02-15T09:05:36;95650.66;;;8.17;94.76
8366;BME280;4220;42.502;24.188;2024-02-15T09:08:04;95612.91;;;7.96;94.13
8366;BME280;4220;42.502;24.188;2024-02-15T09:10:31;95657.91;;;8.36;87.76
8366;BME280;4220;42.502;24.188;2024-02-15T09:12:57;95653.81;;;8.62;85.67
8366;BME280;4220;42.502;24.188;2024-02-15T09:15:24;95650.63;;;8.79;83.47
8366;BME280;4220;42.502;24.188;2024-02-15T09:17:52;95656.19;;;8.97;83.51
8366;BME280;4220;42.502;24.188;2024-02-15T09:20:20;95656.88;;;9.19;83.56
8366;BME280;4220;42.502;24.188;2024-02-15T09:22:48;95650.22;;;9.36;80.79
8366;BME280;4220;42.502;24.188;2024-02-15T09:25:15;95639.22;;;9.26;80.97
8366;BME280;4220;42.502;24.188;2024-02-15T09:27:42;95642.31;;;9.43;82.07
8366;BME280;4220;42.502;24.188;2024-02-15T09:30:10;95641.47;;;9.49;80.43
8366;BME280;4220;42.502;24.188;2024-02-15T09:32:38;95651.31;;;9.68;81.12
8366;BME280;4220;42.502;24.188;2024-02-15T09:35:07;95642.16;;;9.77;79.36
8366;BME280;4220;42.502;24.188;2024-02-15T09:37:34;95638.91;;;9.95;79.08
8366;BME280;4220;42.502;24.188;2024-02-15T09:40:03;95632.75;;;10.01;78.42
8366;BME280;4220;42.502;24.188;2024-02-15T09:42:32;95638.69;;;10.09;77.90
8366;BME280;4220;42.502;24.188;2024-02-15T09:45:00;95606.28;;;9.94;75.55
8366;BME280;4220;42.502;24.188;2024-02-15T09:47:33;95632.41;;;10.17;75.45
8366;BME280;4220;42.502;24.188;2024-02-15T09:50:01;95642.56;;;10.33;74.09
8366;BME280;4220;42.502;24.188;2024-02-15T09:52:31;95643.16;;;10.48;73.00
8366;BME280;4220;42.502;24.188;2024-02-15T09:54:59;95638.63;;;10.62;72.20
8366;BME280;4220;42.502;24.188;2024-02-15T09:57:29;95630.09;;;10.53;72.00
8366;BME280;4220;42.502;24.188;2024-02-15T09:59:57;95625.97;;;10.70;72.81
8366;BME280;4220;42.502;24.188;2024-02-15T10:02:24;95622.41;;;10.89;71.35
8366;BME280;4220;42.502;24.188;2024-02-15T10:04:52;95622.28;;;11.15;69.40
8366;BME280;4220;42.502;24.188;2024-02-15T10:07:21;95615.28;;;11.34;69.64
8366;BME280;4220;42.502;24.188;2024-02-15T10:09:50;95621.56;;;11.40;68.03
8366;BME280;4220;42.502;24.188;2024-02-15T10:12:17;95614.84;;;11.37;68.29
8366;BME280;4220;42.502;24.188;2024-02-15T10:14:48;95614.28;;;11.29;67.92
8366;BME280;4220;42.502;24.188;2024-02-15T10:17:18;95607.94;;;11.30;67.25
8366;BME280;4220;42.502;24.188;2024-02-15T10:19:45;95600.53;;;11.38;68.00
8366;BME280;4220;42.502;24.188;2024-02-15T10:22:28;95603.44;;;11.68;67.07
8366;BME280;4220;42.502;24.188;2024-02-15T10:25:10;95609.75;;;11.67;66.58
8366;BME280;4220;42.502;24.188;2024-02-15T10:27:37;95603.22;;;11.63;66.87
8366;BME280;4220;42.502;24.188;2024-02-15T10:30:14;95605.28;;;11.61;65.94
8366;BME280;4220;42.502;24.188;2024-02-15T10:32:41;95594.91;;;11.53;67.04
8366;BME280;4220;42.502;24.188;2024-02-15T10:35:09;95585.16;;;11.47;66.89
8366;BME280;4220;42.502;24.188;2024-02-15T10:37:35;95568.06;;;11.05;67.14
8366;BME280;4220;42.502;24.188;2024-02-15T10:40:07;95577.56;;;10.75;67.56
8366;BME280;4220;42.502;24.188;2024-02-15T10:42:36;95573.72;;;10.71;68.36
8366;BME280;4220;42.502;24.188;2024-02-15T10:45:03;95573.28;;;10.74;69.10
8366;BME280;4220;42.502;24.188;2024-02-15T10:47:30;95569.53;;;10.94;68.59
8366;BME280;4220;42.502;24.188;2024-02-15T10:49:57;95565.88;;;10.95;67.39
8366;BME280;4220;42.502;24.188;2024-02-15T10:52:24;95562.53;;;11.06;67.01
8366;BME280;4220;42.502;24.188;2024-02-15T10:55:01;95565.63;;;11.35;67.16
8366;BME280;4220;42.502;24.188;2024-02-15T10:57:31;95560.84;;;11.74;65.85
8366;BME280;4220;42.502;24.188;2024-02-15T11:00:00;95553.34;;;12.14;64.73
8366;BME280;4220;42.502;24.188;2024-02-15T11:02:37;95553.16;;;12.52;62.54
8366;BME280;4220;42.502;24.188;2024-02-15T11:05:07;95554.13;;;12.39;60.71
8366;BME280;4220;42.502;24.188;2024-02-15T11:07:35;95532.31;;;12.13;61.20
8366;BME280;4220;42.502;24.188;2024-02-15T11:10:03;95549.22;;;12.36;60.69
8366;BME280;4220;42.502;24.188;2024-02-15T11:12:35;95543.63;;;12.44;59.50
8366;BME280;4220;42.502;24.188;2024-02-15T11:15:02;95539.19;;;12.75;59.45
8366;BME280;4220;42.502;24.188;2024-02-15T11:17:48;95534.13;;;13.33;58.78
8366;BME280;4220;42.502;24.188;2024-02-15T11:20:47;95536.88;;;13.67;58.23
8366;BME280;4220;42.502;24.188;2024-02-15T11:23:25;95525.38;;;13.44;56.59
8366;BME280;4220;42.502;24.188;2024-02-15T11:25:56;95528.31;;;13.65;57.11
8366;BME280;4220;42.502;24.188;2024-02-15T11:28:43;95528.91;;;14.14;55.67
8366;BME280;4220;42.502;24.188;2024-02-15T11:34:44;95535.59;;;12.99;60.55
8366;BME280;4220;42.502;24.188;2024-02-15T11:41:00;95511.25;;;12.11;64.46
8366;BME280;4220;42.502;24.188;2024-02-15T11:43:53;95483.34;;;11.53;64.38
8366;BME280;4220;42.502;24.188;2024-02-15T11:46:24;95508.78;;;11.42;65.59
8366;BME280;4220;42.502;24.188;2024-02-15T11:48:54;95506.88;;;11.25;65.03
8366;BME280;4220;42.502;24.188;2024-02-15T11:51:32;95524.81;;;11.29;66.24
8366;BME280;4220;42.502;24.188;2024-02-15T11:54:03;95523.75;;;11.37;66.18
8366;BME280;4220;42.502;24.188;2024-02-15T11:56:48;95509.06;;;11.59;65.52
8366;BME280;4220;42.502;24.188;2024-02-15T11:59:18;95516.44;;;11.57;64.15
8366;BME280;4220;42.502;24.188;2024-02-15T12:01:54;95518.03;;;11.58;63.67
8366;BME280;4220;42.502;24.188;2024-02-15T12:04:39;95507.69;;;11.25;64.47
8366;BME280;4220;42.502;24.188;2024-02-15T12:07:23;95501.72;;;11.30;64.33
8366;BME280;4220;42.502;24.188;2024-02-15T12:10:07;95501.22;;;11.14;64.87
8366;BME280;4220;42.502;24.188;2024-02-15T12:12:59;95507.59;;;11.07;65.02
8366;BME280;4220;42.502;24.188;2024-02-15T12:15:57;95504.81;;;11.27;65.40
8366;BME280;4220;42.502;24.188;2024-02-15T12:18:42;95504.41;;;11.54;64.56
8366;BME280;4220;42.502;24.188;2024-02-15T12:21:13;95503.31;;;11.62;64.22
8366;BME280;4220;42.502;24.188;2024-02-15T12:23:41;95502.28;;;11.63;64.14
8366;BME280;4220;42.502;24.188;2024-02-15T12:26:08;95492.97;;;11.78;64.41
8366;BME280;4220;42.502;24.188;2024-02-15T12:28:35;95500.91;;;12.03;63.60
8366;BME280;4220;42.502;24.188;2024-02-15T12:31:04;95506.44;;;12.02;62.07
8366;BME280;4220;42.502;24.188;2024-02-15T12:33:33;95507.72;;;12.17;62.47
8366;BME280;4220;42.502;24.188;2024-02-15T12:36:07;95482.75;;;12.18;62.22
8366;BME280;4220;42.502;24.188;2024-02-15T12:38:34;95499.06;;;12.04;62.74
8366;BME280;4220;42.502;24.188;2024-02-15T12:41:03;95488.59;;;12.09;62.78
8366;BME280;4220;42.502;24.188;2024-02-15T12:43:31;95507.13;;;11.72;63.22
8366;BME280;4220;42.502;24.188;2024-02-15T12:45:57;95467.06;;;11.67;63.77
8366;BME280;4220;42.502;24.188;2024-02-15T12:48:25;95494.19;;;12.01;63.47
8366;BME280;4220;42.502;24.188;2024-02-15T12:50:52;95501.50;;;12.05;63.52
8366;BME280;4220;42.502;24.188;2024-02-15T12:53:23;95502.81;;;12.14;62.78
8366;BME280;4220;42.502;24.188;2024-02-15T12:55:53;95495.19;;;11.82;63.54
8366;BME280;4220;42.502;24.188;2024-02-15T12:58:21;95497.72;;;11.95;63.43
8366;BME280;4220;42.502;24.188;2024-02-15T13:00:50;95497.16;;;12.11;62.91
8366;BME280;4220;42.502;24.188;2024-02-15T13:03:16;95500.69;;;11.87;62.49
8366;BME280;4220;42.502;24.188;2024-02-15T13:05:46;95499.03;;;11.61;63.52
8366;BME280;4220;42.502;24.188;2024-02-15T13:08:14;95493.78;;;11.79;62.79
8366;BME280;4220;42.502;24.188;2024-02-15T13:10:43;95501.50;;;12.05;62.62
8366;BME280;4220;42.502;24.188;2024-02-15T13:13:10;95502.47;;;12.11;62.80
8366;BME280;4220;42.502;24.188;2024-02-15T13:15:39;95502.78;;;12.21;62.72
8366;BME280;4220;42.502;24.188;2024-02-15T13:18:06;95499.28;;;12.38;61.99
8366;BME280;4220;42.502;24.188;2024-02-15T13:20:35;95482.00;;;12.48;61.63
8366;BME280;4220;42.502;24.188;2024-02-15T13:23:05;95468.34;;;12.26;60.91
8366;BME280;4220;42.502;24.188;2024-02-15T13:25:35;95494.81;;;12.21;62.00
8366;BME280;4220;42.502;24.188;2024-02-15T13:28:03;95503.97;;;11.82;62.61
8366;BME280;4220;42.502;24.188;2024-02-15T13:30:30;95496.97;;;11.63;64.04